Navarre, Kansas
Current Conditions -  °F | °C
As of 7:53 AM on Saturday 20 Dec 2014 (Local Time) from KSLN Reporting Station
Moderate Fog Moderate Fog  
Wind Chill: 23°   Ceiling: 200
Heat Index: 33°   Visibility: 0.25mi
Dew Point: 32°   Wind: 14mph
Humidity: 96%   Direction: 190°S
Pressure: 30.13"   Gusts: NA
Location:  38.6527°N, 97.1508°W
Report Text: KSLN 201353Z 19012KT 1/4SM FG VV002 01/00 A3013 RMK AO2 SLP213 T00060000
Loading
Personal Weather Stations






























Interactive Weather Map New forecast layout! Learn more

10-Day Weather Forecast

Advertisements
Track Severe Weather on mobile